Time;durP1;ratioP1;P1;durP2;ratioP2;P2;SDS_P1;SDS_P2;PMS_P1;PMS_P2;Temp;Humidity;BMP_temperature;BMP_pressure;BME280_temperature;BME280_humidity;BME280_pressure;Samples;Min_cycle;Max_cycle;Signal;HPM_P1;HPM_P2
2021/09/20 00:01:15;;;;;;;;;;;15.10;99.90;;;;;;4898760;29;19912;-72
2021/09/20 00:03:40;;;;;;;;;;;15.10;99.90;;;;;;4913185;29;19912;-72
2021/09/20 00:06:06;;;;;;;;;;;15.10;99.90;;;;;;4898959;29;20349;-72
2021/09/20 00:08:31;;;;;;;;;;;15.10;99.90;;;;;;4898535;29;19914;-72
2021/09/20 00:10:57;;;;;;;;;;;15.00;99.90;;;;;;4896514;29;20018;-72
2021/09/20 00:13:22;;;;;;;;;;;14.90;99.90;;;;;;4897556;29;20360;-72
2021/09/20 00:15:47;;;;;;;;;;;14.90;99.90;;;;;;4913091;29;19919;-72
2021/09/20 00:18:13;;;;;;;;;;;14.90;99.90;;;;;;4913178;29;20001;-72
2021/09/20 00:20:39;;;;;;;;;;;14.90;99.90;;;;;;4898729;29;19930;-72
2021/09/20 00:23:04;;;;;;;;;;;14.90;99.90;;;;;;4898042;29;20277;-72
2021/09/20 00:25:30;;;;;;;;;;;14.90;99.90;;;;;;4898519;29;19915;-73
2021/09/20 00:27:55;;;;;;;;;;;14.80;99.90;;;;;;4898336;29;20002;-72
2021/09/20 00:30:21;;;;;;;;;;;14.80;99.90;;;;;;4898458;29;19998;-72
2021/09/20 00:32:46;;;;;;;;;;;14.80;99.90;;;;;;4898563;29;20002;-72
2021/09/20 00:35:12;;;;;;;;;;;14.80;99.90;;;;;;4897834;29;19971;-73
2021/09/20 00:37:37;;;;;;;;;;;14.70;99.90;;;;;;4898375;29;20372;-73
2021/09/20 00:40:04;;;;;;;;;;;14.70;99.90;;;;;;4898006;29;19907;-72
2021/09/20 00:42:30;;;;;;;;;;;14.70;99.90;;;;;;4895950;29;20010;-73
2021/09/20 00:44:55;;;;;;;;;;;14.70;99.90;;;;;;4898052;29;19944;-72
2021/09/20 00:47:21;;;;;;;;;;;14.60;99.90;;;;;;4896594;29;19911;-72
2021/09/20 00:49:46;;;;;;;;;;;14.60;99.90;;;;;;4896393;29;19966;-72
2021/09/20 00:52:12;;;;;;;;;;;14.50;99.90;;;;;;4898182;29;19954;-73
2021/09/20 00:54:37;;;;;;;;;;;14.50;99.90;;;;;;4898346;29;20333;-73
2021/09/20 00:57:03;;;;;;;;;;;14.50;99.90;;;;;;4897288;29;19907;-73
2021/09/20 00:59:29;;;;;;;;;;;14.50;99.90;;;;;;4898256;29;19907;-72
2021/09/20 01:01:54;;;;;;;;;;;14.50;99.90;;;;;;4896441;29;19963;-73
2021/09/20 01:04:20;;;;;;;;;;;14.40;99.90;;;;;;4897993;29;20272;-73
2021/09/20 01:06:46;;;;;;;;;;;14.40;99.90;;;;;;4897578;29;19940;-73
2021/09/20 01:09:11;;;;;;;;;;;14.30;99.90;;;;;;4897762;29;20356;-73
2021/09/20 01:11:37;;;;;;;;;;;14.30;99.90;;;;;;4897122;29;20380;-73
2021/09/20 01:14:02;;;;;;;;;;;14.30;99.90;;;;;;4897989;29;20376;-73
2021/09/20 01:16:28;;;;;;;;;;;14.30;99.90;;;;;;4897790;29;19918;-73
2021/09/20 01:18:53;;;;;;;;;;;14.30;99.90;;;;;;4897165;29;19918;-73
2021/09/20 01:21:19;;;;;;;;;;;14.30;99.90;;;;;;4896404;29;20365;-73
2021/09/20 01:23:44;;;;;;;;;;;14.30;99.90;;;;;;4897791;29;19911;-73
2021/09/20 01:26:11;;;;;;;;;;;14.30;99.90;;;;;;4897367;29;19915;-73
2021/09/20 01:28:36;;;;;;;;;;;14.20;99.90;;;;;;4896614;29;19912;-73
2021/09/20 01:31:02;;;;;;;;;;;14.10;99.90;;;;;;4897609;29;19916;-74
2021/09/20 01:33:27;;;;;;;;;;;14.10;99.90;;;;;;4897810;29;19986;-73
2021/09/20 01:35:53;;;;;;;;;;;14.00;99.90;;;;;;4912098;29;19911;-73
2021/09/20 01:38:19;;;;;;;;;;;14.00;99.90;;;;;;4912425;29;19954;-73
2021/09/20 01:40:46;;;;;;;;;;;14.00;99.90;;;;;;4896327;29;19967;-73
2021/09/20 01:43:11;;;;;;;;;;;14.00;99.90;;;;;;4912112;29;20325;-73
2021/09/20 01:45:38;;;;;;;;;;;14.00;99.90;;;;;;4897598;29;19916;-73
2021/09/20 01:48:03;;;;;;;;;;;14.00;99.90;;;;;;4910956;29;20439;-73
2021/09/20 01:50:29;;;;;;;;;;;13.90;99.90;;;;;;4897104;29;20104;-73
2021/09/20 01:52:54;;;;;;;;;;;13.90;99.90;;;;;;4897584;29;19987;-73
2021/09/20 01:55:20;;;;;;;;;;;13.90;99.90;;;;;;4897661;29;19963;-73
2021/09/20 01:57:45;;;;;;;;;;;13.80;99.90;;;;;;4897540;29;19911;-74
2021/09/20 02:00:14;;;;;;;;;;;13.80;99.90;;;;;;4896286;29;19911;-73
2021/09/20 02:02:40;;;;;;;;;;;13.80;99.90;;;;;;4895525;29;20006;-73
2021/09/20 02:05:06;;;;;;;;;;;13.70;99.90;;;;;;4897703;29;20014;-72
2021/09/20 02:07:32;;;;;;;;;;;13.70;99.90;;;;;;4897486;29;20336;-73
2021/09/20 02:09:57;;;;;;;;;;;13.70;99.90;;;;;;4897455;29;19912;-73
2021/09/20 02:12:23;;;;;;;;;;;13.60;99.90;;;;;;4897390;29;19922;-72
2021/09/20 02:14:48;;;;;;;;;;;13.60;99.90;;;;;;4896126;29;20296;-73
2021/09/20 02:17:14;;;;;;;;;;;13.60;99.90;;;;;;4897610;29;20345;-72
2021/09/20 02:19:40;;;;;;;;;;;13.50;99.90;;;;;;4900355;29;19911;-73
2021/09/20 02:22:06;;;;;;;;;;;13.50;99.90;;;;;;4901126;29;19930;-73
2021/09/20 02:24:31;;;;;;;;;;;13.50;99.90;;;;;;4900860;29;19915;-72
2021/09/20 02:26:58;;;;;;;;;;;13.40;99.90;;;;;;4899775;29;19919;-73
2021/09/20 02:29:23;;;;;;;;;;;13.40;99.90;;;;;;4901216;29;20396;-73
2021/09/20 02:31:49;;;;;;;;;;;13.40;99.90;;;;;;4901930;29;19908;-74
2021/09/20 02:34:15;;;;;;;;;;;13.40;99.90;;;;;;4901739;29;19912;-73
2021/09/20 02:36:40;;;;;;;;;;;13.30;99.90;;;;;;4901301;29;19911;-73
2021/09/20 02:39:06;;;;;;;;;;;13.30;99.90;;;;;;4915355;29;19918;-72
2021/09/20 02:41:31;;;;;;;;;;;13.30;99.90;;;;;;4905006;29;19912;-72
2021/09/20 02:43:57;;;;;;;;;;;13.40;99.90;;;;;;4904337;29;19912;-72
2021/09/20 02:46:22;;;;;;;;;;;13.30;99.90;;;;;;4904485;29;19915;-73
2021/09/20 02:48:48;;;;;;;;;;;13.30;99.90;;;;;;4903219;29;20497;-73
2021/09/20 02:51:13;;;;;;;;;;;13.30;99.90;;;;;;4903864;29;19912;-72
2021/09/20 02:53:39;;;;;;;;;;;13.20;99.90;;;;;;4903604;29;19918;-73
2021/09/20 02:56:05;;;;;;;;;;;13.10;99.90;;;;;;4903770;29;19918;-72
2021/09/20 02:58:30;;;;;;;;;;;13.10;99.90;;;;;;4903950;29;19907;-73
2021/09/20 03:00:56;;;;;;;;;;;13.10;99.90;;;;;;4904005;29;20365;-72
2021/09/20 03:03:21;;;;;;;;;;;13.10;99.90;;;;;;4903553;29;20108;-73
2021/09/20 03:05:47;;;;;;;;;;;13.10;99.90;;;;;;4911884;29;20281;-73
2021/09/20 03:08:12;;;;;;;;;;;13.10;99.90;;;;;;4917460;29;19945;-73
2021/09/20 03:10:38;;;;;;;;;;;13.10;99.90;;;;;;4917747;29;19915;-73
2021/09/20 03:13:03;;;;;;;;;;;13.00;99.90;;;;;;4915575;29;19948;-73
2021/09/20 03:15:29;;;;;;;;;;;13.00;99.90;;;;;;4916873;29;19936;-72
2021/09/20 03:17:54;;;;;;;;;;;12.90;99.90;;;;;;4916205;29;19911;-75
2021/09/20 03:20:20;;;;;;;;;;;12.90;99.90;;;;;;4918871;29;19971;-72
2021/09/20 03:22:46;;;;;;;;;;;12.90;99.90;;;;;;4916679;29;19994;-73
2021/09/20 03:25:12;;;;;;;;;;;12.90;99.90;;;;;;4931386;29;19911;-73
2021/09/20 03:27:38;;;;;;;;;;;12.80;99.90;;;;;;4916310;29;19914;-74
2021/09/20 03:30:04;;;;;;;;;;;12.80;99.90;;;;;;4914427;29;19921;-73
2021/09/20 03:32:30;;;;;;;;;;;12.80;99.90;;;;;;4907454;29;19908;-73
2021/09/20 03:34:55;;;;;;;;;;;12.90;99.90;;;;;;4905774;29;19911;-72
2021/09/20 03:37:21;;;;;;;;;;;12.90;99.90;;;;;;4904540;29;19907;-73
2021/09/20 03:39:46;;;;;;;;;;;12.90;99.90;;;;;;4903470;29;19911;-73
2021/09/20 03:42:12;;;;;;;;;;;12.90;99.90;;;;;;4903550;29;19912;-73
2021/09/20 03:44:37;;;;;;;;;;;12.90;99.90;;;;;;4901525;29;19907;-73
2021/09/20 03:47:03;;;;;;;;;;;13.00;99.90;;;;;;4901159;29;19921;-73
2021/09/20 03:49:28;;;;;;;;;;;13.00;99.90;;;;;;4901678;29;19907;-73
2021/09/20 03:51:54;;;;;;;;;;;13.00;99.90;;;;;;4901287;29;19912;-73
2021/09/20 03:54:19;;;;;;;;;;;13.00;99.90;;;;;;4899190;29;19907;-73
2021/09/20 03:56:45;;;;;;;;;;;13.00;99.90;;;;;;4900714;29;19961;-72
2021/09/20 03:59:10;;;;;;;;;;;13.00;99.90;;;;;;4898555;29;19907;-72
2021/09/20 04:01:36;;;;;;;;;;;13.00;99.90;;;;;;4899661;29;20377;-72
2021/09/20 04:04:02;;;;;;;;;;;13.00;99.90;;;;;;4914388;29;19911;-73
2021/09/20 04:06:27;;;;;;;;;;;13.00;99.90;;;;;;4898201;29;20460;-73
2021/09/20 04:08:55;;;;;;;;;;;13.00;99.90;;;;;;4899394;29;19911;-73
2021/09/20 04:11:20;;;;;;;;;;;12.90;99.90;;;;;;4897562;29;19966;-73
2021/09/20 04:13:46;;;;;;;;;;;13.00;99.90;;;;;;4897686;29;19918;-73
2021/09/20 04:16:11;;;;;;;;;;;13.00;99.90;;;;;;4897762;29;19962;-72
2021/09/20 04:18:36;;;;;;;;;;;13.00;99.90;;;;;;4899102;29;19907;-71
2021/09/20 04:21:02;;;;;;;;;;;12.90;99.90;;;;;;4911968;29;19919;-72
2021/09/20 04:23:27;;;;;;;;;;;12.80;99.90;;;;;;4898719;29;20424;-73
2021/09/20 04:25:53;;;;;;;;;;;12.80;99.90;;;;;;4898501;29;19915;-73
2021/09/20 04:28:19;;;;;;;;;;;12.80;99.90;;;;;;4898616;29;19954;-73
2021/09/20 04:30:45;;;;;;;;;;;12.80;99.90;;;;;;4898783;29;19912;-72
2021/09/20 04:33:11;;;;;;;;;;;12.80;99.90;;;;;;4897543;29;19913;-72
2021/09/20 04:35:37;;;;;;;;;;;12.80;99.90;;;;;;4898620;29;20317;-72
2021/09/20 04:38:02;;;;;;;;;;;12.80;99.90;;;;;;4898571;29;19922;-73
2021/09/20 04:40:28;;;;;;;;;;;12.70;99.90;;;;;;4897707;29;19975;-72
2021/09/20 04:42:53;;;;;;;;;;;12.70;99.90;;;;;;4898424;29;19907;-73
2021/09/20 04:45:18;;;;;;;;;;;12.70;99.90;;;;;;4898285;29;19919;-72
2021/09/20 04:47:45;;;;;;;;;;;12.60;99.90;;;;;;4898457;29;19908;-72
2021/09/20 04:50:10;;;;;;;;;;;12.60;99.90;;;;;;4897851;29;19954;-72
2021/09/20 04:52:36;;;;;;;;;;;12.50;99.90;;;;;;4898325;29;19907;-72
2021/09/20 04:55:02;;;;;;;;;;;12.50;99.90;;;;;;4897626;29;19994;-72
2021/09/20 04:57:27;;;;;;;;;;;12.50;99.90;;;;;;4898230;29;19911;-72
2021/09/20 04:59:52;;;;;;;;;;;12.50;99.90;;;;;;4898191;29;19911;-72
2021/09/20 05:02:18;;;;;;;;;;;12.50;99.90;;;;;;4898150;29;19912;-73
2021/09/20 05:04:43;;;;;;;;;;;12.50;99.90;;;;;;4898516;29;20059;-73
2021/09/20 05:07:09;;;;;;;;;;;12.50;99.90;;;;;;4898301;29;19930;-73
2021/09/20 05:09:34;;;;;;;;;;;12.50;99.90;;;;;;4897738;29;19912;-73
2021/09/20 05:12:00;;;;;;;;;;;12.50;99.90;;;;;;4896950;29;19998;-73
2021/09/20 05:14:25;;;;;;;;;;;12.50;99.90;;;;;;4898545;29;19908;-71
2021/09/20 05:16:52;;;;;;;;;;;12.40;99.90;;;;;;4898223;29;19907;-71
2021/09/20 05:19:18;;;;;;;;;;;12.40;99.90;;;;;;4897334;29;19915;-72
2021/09/20 05:21:43;;;;;;;;;;;12.40;99.90;;;;;;4898044;29;20254;-72
2021/09/20 05:24:09;;;;;;;;;;;12.30;99.90;;;;;;4897645;29;19907;-72
2021/09/20 05:26:34;;;;;;;;;;;12.20;99.90;;;;;;4897847;29;19947;-73
2021/09/20 05:29:00;;;;;;;;;;;12.20;99.90;;;;;;4893653;29;19974;-72
2021/09/20 05:31:25;;;;;;;;;;;12.20;99.90;;;;;;4897438;29;19994;-72
2021/09/20 05:33:51;;;;;;;;;;;12.20;99.90;;;;;;4896523;29;19907;-73
2021/09/20 05:36:16;;;;;;;;;;;12.20;99.90;;;;;;4897420;29;19911;-73
2021/09/20 05:38:42;;;;;;;;;;;12.20;99.90;;;;;;4897385;29;19916;-73
2021/09/20 05:41:07;;;;;;;;;;;12.20;99.90;;;;;;4896963;29;19912;-73
2021/09/20 05:43:33;;;;;;;;;;;12.20;99.90;;;;;;4897736;29;19950;-72
2021/09/20 05:45:58;;;;;;;;;;;12.20;99.90;;;;;;4896406;29;19938;-73
2021/09/20 05:48:24;;;;;;;;;;;12.20;99.90;;;;;;4896577;29;20265;-73
2021/09/20 05:50:49;;;;;;;;;;;12.30;99.90;;;;;;4897577;29;19919;-73
2021/09/20 05:53:15;;;;;;;;;;;12.30;99.90;;;;;;4898524;29;19975;-73
2021/09/20 05:55:41;;;;;;;;;;;12.40;99.90;;;;;;4901023;29;20010;-73
2021/09/20 05:58:06;;;;;;;;;;;12.30;99.90;;;;;;4900627;29;19918;-73
2021/09/20 06:00:33;;;;;;;;;;;12.30;99.90;;;;;;4899670;29;20014;-73
2021/09/20 06:02:58;;;;;;;;;;;12.30;99.90;;;;;;4901134;29;19914;-73
2021/09/20 06:05:24;;;;;;;;;;;12.30;99.90;;;;;;4900243;29;20364;-72
2021/09/20 06:07:49;;;;;;;;;;;12.30;99.90;;;;;;4900143;29;19911;-72
2021/09/20 06:10:16;;;;;;;;;;;12.40;99.90;;;;;;4900693;29;19922;-73
2021/09/20 06:12:41;;;;;;;;;;;12.40;99.90;;;;;;4900122;29;19915;-73
2021/09/20 06:15:08;;;;;;;;;;;12.40;99.90;;;;;;4900851;29;19915;-73
2021/09/20 06:17:33;;;;;;;;;;;12.40;99.90;;;;;;4900861;29;19918;-72
2021/09/20 06:19:59;;;;;;;;;;;12.40;99.90;;;;;;4900712;29;19911;-70
2021/09/20 06:22:24;;;;;;;;;;;12.40;99.90;;;;;;4900112;29;19911;-72
2021/09/20 06:24:50;;;;;;;;;;;12.50;99.90;;;;;;4900666;29;20138;-72
2021/09/20 06:27:15;;;;;;;;;;;12.50;99.90;;;;;;4900942;29;20351;-72
2021/09/20 06:29:41;;;;;;;;;;;12.50;99.90;;;;;;4914750;29;19922;-71
2021/09/20 06:32:06;;;;;;;;;;;12.50;99.90;;;;;;4900566;29;20365;-72
2021/09/20 06:34:32;;;;;;;;;;;12.60;99.90;;;;;;4914835;29;19911;-71
2021/09/20 06:36:59;;;;;;;;;;;12.60;99.90;;;;;;4914862;29;19915;-72
2021/09/20 06:39:24;;;;;;;;;;;12.50;99.90;;;;;;4900625;29;19943;-72
2021/09/20 06:41:50;;;;;;;;;;;12.50;99.90;;;;;;4900480;29;19946;-71
2021/09/20 06:44:15;;;;;;;;;;;12.50;99.90;;;;;;4900495;29;19908;-73
2021/09/20 06:46:42;;;;;;;;;;;12.50;99.90;;;;;;4898566;29;20337;-73
2021/09/20 06:49:07;;;;;;;;;;;12.60;99.90;;;;;;4898967;29;19917;-74
2021/09/20 06:51:33;;;;;;;;;;;12.70;99.90;;;;;;4899396;29;19907;-75
2021/09/20 06:53:59;;;;;;;;;;;12.70;99.90;;;;;;4900568;29;19908;-77
2021/09/20 06:56:24;;;;;;;;;;;12.70;99.90;;;;;;4900745;29;19908;-72
2021/09/20 06:58:50;;;;;;;;;;;12.80;99.90;;;;;;4900449;29;19934;-74
2021/09/20 07:01:16;;;;;;;;;;;12.80;99.90;;;;;;4900286;29;19911;-74
2021/09/20 07:03:41;;;;;;;;;;;12.90;99.90;;;;;;4897678;29;20009;-74
2021/09/20 07:06:07;;;;;;;;;;;12.90;99.90;;;;;;4898133;29;19938;-75
2021/09/20 07:08:33;;;;;;;;;;;12.90;99.90;;;;;;4900442;29;20047;-75
2021/09/20 07:10:58;;;;;;;;;;;12.90;99.90;;;;;;4899929;29;19919;-74
2021/09/20 07:13:24;;;;;;;;;;;12.90;99.90;;;;;;4914372;29;19911;-74
2021/09/20 07:15:49;;;;;;;;;;;12.90;99.90;;;;;;4898672;29;19915;-74
2021/09/20 07:18:15;;;;;;;;;;;13.00;99.90;;;;;;4898997;29;20280;-73
2021/09/20 07:20:40;;;;;;;;;;;13.00;99.90;;;;;;4899815;29;19907;-74
2021/09/20 07:23:06;;;;;;;;;;;13.10;99.90;;;;;;4898077;29;19914;-73
2021/09/20 07:25:31;;;;;;;;;;;13.00;99.90;;;;;;4899309;29;20357;-73
2021/09/20 07:27:57;;;;;;;;;;;13.00;99.90;;;;;;4899670;29;19912;-74
2021/09/20 07:30:23;;;;;;;;;;;13.10;99.90;;;;;;4898123;29;19911;-73
2021/09/20 07:32:49;;;;;;;;;;;13.20;99.90;;;;;;4897376;29;19966;-74
2021/09/20 07:35:16;;;;;;;;;;;13.20;99.90;;;;;;4899602;29;19912;-75
2021/09/20 07:37:51;;;;;;;;;;;13.30;99.90;;;;;;4897997;29;19975;-73
2021/09/20 07:40:17;;;;;;;;;;;13.30;99.90;;;;;;4899722;29;20357;-74
2021/09/20 07:42:43;;;;;;;;;;;13.50;99.90;;;;;;4895625;29;19926;-74
2021/09/20 07:45:09;;;;;;;;;;;13.60;99.90;;;;;;4899674;29;19911;-76
2021/09/20 07:47:35;;;;;;;;;;;13.80;99.90;;;;;;4900193;29;19907;-76
2021/09/20 07:50:01;;;;;;;;;;;13.90;99.90;;;;;;4898746;29;20055;-73
2021/09/20 07:52:26;;;;;;;;;;;14.00;99.90;;;;;;4900015;29;19907;-74
2021/09/20 07:54:52;;;;;;;;;;;14.10;99.90;;;;;;4899910;29;19938;-74
2021/09/20 07:57:18;;;;;;;;;;;14.10;99.90;;;;;;4900529;29;19951;-76
2021/09/20 07:59:44;;;;;;;;;;;14.30;99.90;;;;;;4900792;29;19908;-74
2021/09/20 08:02:09;;;;;;;;;;;14.30;99.90;;;;;;4900696;29;20325;-74
2021/09/20 08:04:35;;;;;;;;;;;14.40;99.90;;;;;;4914366;29;19911;-74
2021/09/20 08:07:00;;;;;;;;;;;14.40;99.90;;;;;;4901182;29;20416;-74
2021/09/20 08:09:26;;;;;;;;;;;14.40;99.90;;;;;;4903424;29;19908;-75
2021/09/20 08:11:51;;;;;;;;;;;14.50;99.90;;;;;;4902460;29;19923;-75
2021/09/20 08:14:17;;;;;;;;;;;14.60;99.90;;;;;;4903493;29;19912;-76
2021/09/20 08:16:42;;;;;;;;;;;14.70;99.90;;;;;;4904403;29;19919;-74
2021/09/20 08:19:08;;;;;;;;;;;14.90;99.90;;;;;;4901386;29;19919;-75
2021/09/20 08:21:33;;;;;;;;;;;15.00;99.90;;;;;;4902185;29;19911;-75
2021/09/20 08:23:59;;;;;;;;;;;15.10;99.90;;;;;;4901731;29;19919;-75
2021/09/20 08:26:24;;;;;;;;;;;15.10;99.90;;;;;;4901915;29;19919;-74
2021/09/20 08:28:50;;;;;;;;;;;15.00;99.90;;;;;;4901840;29;19917;-74
2021/09/20 08:31:15;;;;;;;;;;;15.00;99.90;;;;;;4901664;29;19918;-74
2021/09/20 08:33:41;;;;;;;;;;;15.10;99.90;;;;;;4899541;29;20361;-74
2021/09/20 08:36:07;;;;;;;;;;;15.20;99.90;;;;;;4899692;29;19911;-74
2021/09/20 08:38:32;;;;;;;;;;;15.20;99.90;;;;;;4897922;29;19931;-74
2021/09/20 08:40:58;;;;;;;;;;;15.30;99.90;;;;;;4899073;29;20424;-74
2021/09/20 08:43:23;;;;;;;;;;;15.50;99.90;;;;;;4898025;29;19964;-76
2021/09/20 08:45:49;;;;;;;;;;;15.70;99.90;;;;;;4898963;29;19911;-75
2021/09/20 08:48:15;;;;;;;;;;;15.80;99.90;;;;;;4898649;29;19907;-75
2021/09/20 08:50:40;;;;;;;;;;;16.00;99.90;;;;;;4898422;29;20325;-75
2021/09/20 08:53:08;;;;;;;;;;;16.20;99.90;;;;;;4898690;29;19911;-74
2021/09/20 08:55:35;;;;;;;;;;;16.30;99.90;;;;;;4913693;29;20351;-74
2021/09/20 08:58:00;;;;;;;;;;;16.30;99.90;;;;;;4898167;29;19907;-73
2021/09/20 09:00:26;;;;;;;;;;;16.20;99.90;;;;;;4913027;29;20030;-74
2021/09/20 09:02:52;;;;;;;;;;;16.30;99.90;;;;;;4898255;29;20018;-75
2021/09/20 09:05:22;;;;;;;;;;;16.40;99.90;;;;;;4898002;29;19987;-75
2021/09/20 09:07:57;;;;;;;;;;;16.50;99.90;;;;;;4898355;29;20394;-75
2021/09/20 09:10:24;;;;;;;;;;;16.50;99.90;;;;;;4897768;29;19939;-76
2021/09/20 09:12:50;;;;;;;;;;;16.50;99.90;;;;;;4896267;29;19911;-77
2021/09/20 09:15:16;;;;;;;;;;;16.60;99.90;;;;;;4898821;29;19947;-76
2021/09/20 09:17:43;;;;;;;;;;;16.60;99.90;;;;;;4898390;29;19966;-75
2021/09/20 09:20:09;;;;;;;;;;;16.70;99.90;;;;;;4898145;29;19907;-75
2021/09/20 09:22:39;;;;;;;;;;;16.90;99.90;;;;;;4912644;29;19919;-75
2021/09/20 09:25:07;;;;;;;;;;;17.00;99.90;;;;;;4898558;29;19907;-76
2021/09/20 09:27:35;;;;;;;;;;;17.20;99.90;;;;;;4897463;29;19908;-75
2021/09/20 09:30:06;;;;;;;;;;;17.30;99.90;;;;;;4901238;29;19918;-75
2021/09/20 09:32:31;;;;;;;;;;;17.30;99.90;;;;;;4916323;29;20367;-76
2021/09/20 09:34:59;;;;;;;;;;;17.10;99.90;;;;;;4901893;29;19994;-75
2021/09/20 09:37:25;;;;;;;;;;;17.20;99.90;;;;;;4901858;29;19908;-75
2021/09/20 09:40:03;;;;;;;;;;;17.30;99.90;;;;;;4901770;29;20277;-75
2021/09/20 09:42:29;;;;;;;;;;;17.30;99.90;;;;;;4901819;29;20284;-75
2021/09/20 09:44:55;;;;;;;;;;;17.30;99.90;;;;;;4901623;29;19908;-76
2021/09/20 09:47:28;;;;;;;;;;;17.40;99.90;;;;;;4901769;29;19989;-76
2021/09/20 09:50:11;;;;;;;;;;;17.60;99.90;;;;;;4900186;29;19907;-76
2021/09/20 09:52:37;;;;;;;;;;;17.60;99.30;;;;;;4900250;29;19907;-75
2021/09/20 09:55:03;;;;;;;;;;;17.70;99.80;;;;;;4901536;29;19915;-75
2021/09/20 09:57:28;;;;;;;;;;;17.80;99.90;;;;;;4916021;29;19907;-75
2021/09/20 09:59:57;;;;;;;;;;;17.80;99.90;;;;;;4901537;29;19907;-75
2021/09/20 10:02:27;;;;;;;;;;;18.00;99.90;;;;;;4900307;29;19918;-74
2021/09/20 10:04:59;;;;;;;;;;;18.10;99.50;;;;;;4900091;29;19915;-74
2021/09/20 10:07:28;;;;;;;;;;;18.20;99.90;;;;;;4900058;29;19940;-74
2021/09/20 10:09:55;;;;;;;;;;;18.10;99.60;;;;;;4901381;29;19911;-74
2021/09/20 10:12:21;;;;;;;;;;;18.20;99.80;;;;;;4916012;29;19911;-75
2021/09/20 10:14:48;;;;;;;;;;;18.30;98.80;;;;;;4901624;29;19912;-74
2021/09/20 10:17:18;;;;;;;;;;;18.50;98.80;;;;;;4901172;29;19907;-74
2021/09/20 10:19:43;;;;;;;;;;;18.50;98.40;;;;;;4915643;29;19912;-75
2021/09/20 10:22:09;;;;;;;;;;;18.60;97.90;;;;;;4901270;29;20269;-75
2021/09/20 10:24:35;;;;;;;;;;;18.50;98.80;;;;;;4900972;29;19907;-75
2021/09/20 10:27:00;;;;;;;;;;;18.60;99.30;;;;;;4915282;29;20288;-75
2021/09/20 10:29:26;;;;;;;;;;;18.70;98.40;;;;;;4900869;29;19914;-75
2021/09/20 10:31:52;;;;;;;;;;;18.80;98.20;;;;;;4898511;29;20262;-75
2021/09/20 10:34:17;;;;;;;;;;;18.90;98.00;;;;;;4882249;29;19908;-75
2021/09/20 10:36:47;;;;;;;;;;;18.90;98.40;;;;;;4882047;29;19908;-75
2021/09/20 10:39:12;;;;;;;;;;;18.70;98.10;;;;;;4879402;29;19912;-76
2021/09/20 10:41:38;;;;;;;;;;;18.70;97.90;;;;;;4882238;29;19907;-75
2021/09/20 10:44:03;;;;;;;;;;;18.70;98.60;;;;;;4882061;29;19912;-76
2021/09/20 10:46:29;;;;;;;;;;;18.80;98.60;;;;;;4882176;29;20306;-75
2021/09/20 10:48:56;;;;;;;;;;;19.00;98.00;;;;;;4881137;29;19907;-75
2021/09/20 10:51:24;;;;;;;;;;;19.20;99.50;;;;;;4880075;29;20009;-75
2021/09/20 10:54:09;;;;;;;;;;;19.30;97.60;;;;;;4881855;29;19914;-75
2021/09/20 10:56:35;;;;;;;;;;;19.40;97.70;;;;;;4881703;29;20440;-75
2021/09/20 10:59:01;;;;;;;;;;;19.20;97.90;;;;;;4880474;29;20002;-74
2021/09/20 11:01:28;;;;;;;;;;;19.10;97.80;;;;;;4881720;29;19908;-75
2021/09/20 11:03:56;;;;;;;;;;;19.20;97.50;;;;;;4882032;29;19963;-75
2021/09/20 11:06:22;;;;;;;;;;;19.30;98.00;;;;;;4899270;29;19947;-75
2021/09/20 11:08:47;;;;;;;;;;;19.30;97.60;;;;;;4914822;29;19911;-75
2021/09/20 11:11:32;;;;;;;;;;;19.10;97.80;;;;;;4898878;29;19915;-74
2021/09/20 11:14:04;;;;;;;;;;;18.90;98.30;;;;;;4900130;29;19938;-74
2021/09/20 11:16:45;;;;;;;;;;;19.00;97.80;;;;;;4900512;29;19907;-75
2021/09/20 11:19:46;;;;;;;;;;;19.20;97.10;;;;;;4900407;29;19911;-75
2021/09/20 11:22:15;;;;;;;;;;;19.40;97.40;;;;;;4860720;29;19947;-75
2021/09/20 11:24:45;;;;;;;;;;;19.60;96.90;;;;;;4892880;29;19959;-74
2021/09/20 11:27:28;;;;;;;;;;;19.80;96.80;;;;;;4900294;29;20390;-75
2021/09/20 11:29:59;;;;;;;;;;;19.60;97.10;;;;;;4914710;29;19908;-75
2021/09/20 11:32:25;;;;;;;;;;;19.60;97.10;;;;;;4898691;29;19908;-75
2021/09/20 11:34:52;;;;;;;;;;;19.90;97.50;;;;;;4914379;29;19911;-75
2021/09/20 11:37:20;;;;;;;;;;;19.90;97.00;;;;;;4900042;29;19914;-75
2021/09/20 11:39:48;;;;;;;;;;;19.70;97.20;;;;;;4899900;29;20329;-75
2021/09/20 11:42:15;;;;;;;;;;;19.40;97.70;;;;;;4900085;29;19995;-75
2021/09/20 11:44:48;;;;;;;;;;;19.10;97.80;;;;;;4900058;29;20353;-75
2021/09/20 11:47:15;;;;;;;;;;;18.80;97.60;;;;;;4898600;29;19915;-75
2021/09/20 11:49:40;;;;;;;;;;;18.60;98.20;;;;;;4899924;29;19907;-75
2021/09/20 11:52:06;;;;;;;;;;;18.60;98.40;;;;;;4898318;29;19907;-75
2021/09/20 11:54:34;;;;;;;;;;;18.50;98.70;;;;;;4898211;29;19942;-74
2021/09/20 11:57:29;;;;;;;;;;;18.50;98.90;;;;;;4898206;29;19907;-75
2021/09/20 11:59:56;;;;;;;;;;;18.90;98.10;;;;;;4886076;29;19908;-75
2021/09/20 12:02:28;;;;;;;;;;;19.60;98.20;;;;;;4898000;29;20292;-75
2021/09/20 12:04:53;;;;;;;;;;;19.90;96.70;;;;;;4913488;29;19907;-75
2021/09/20 12:07:26;;;;;;;;;;;19.80;97.60;;;;;;4898241;29;19919;-75
2021/09/20 12:09:52;;;;;;;;;;;19.60;97.60;;;;;;4899237;29;19911;-75
2021/09/20 12:12:17;;;;;;;;;;;19.30;97.90;;;;;;4899553;29;19907;-75
2021/09/20 12:14:56;;;;;;;;;;;19.20;97.50;;;;;;4899355;29;19914;-75
2021/09/20 12:17:22;;;;;;;;;;;18.90;97.90;;;;;;4899478;29;19911;-75
2021/09/20 12:19:54;;;;;;;;;;;18.60;98.10;;;;;;4899347;29;19946;-76
2021/09/20 12:22:20;;;;;;;;;;;18.60;98.70;;;;;;4899055;29;19907;-75
2021/09/20 12:24:45;;;;;;;;;;;18.60;98.10;;;;;;4899125;29;19914;-74
2021/09/20 12:27:11;;;;;;;;;;;18.60;98.20;;;;;;4898906;29;19926;-75
2021/09/20 12:29:37;;;;;;;;;;;18.60;97.80;;;;;;4899179;29;19908;-75
2021/09/20 12:32:03;;;;;;;;;;;18.60;98.10;;;;;;4899254;29;19946;-74
2021/09/20 12:34:33;;;;;;;;;;;18.70;98.50;;;;;;4898680;29;19955;-75
2021/09/20 12:37:01;;;;;;;;;;;18.80;98.30;;;;;;4899010;29;19907;-75
2021/09/20 12:39:32;;;;;;;;;;;18.70;97.90;;;;;;4898901;29;19908;-76
2021/09/20 12:42:03;;;;;;;;;;;18.60;98.40;;;;;;4899081;29;19946;-76
2021/09/20 12:44:31;;;;;;;;;;;18.50;98.30;;;;;;4898756;29;19959;-76
2021/09/20 12:47:04;;;;;;;;;;;18.40;98.60;;;;;;4898783;29;19933;-75
2021/09/20 12:49:30;;;;;;;;;;;18.30;98.80;;;;;;4898793;29;19911;-76
2021/09/20 12:51:56;;;;;;;;;;;18.30;98.30;;;;;;4897150;29;19914;-76
2021/09/20 12:54:23;;;;;;;;;;;18.40;98.70;;;;;;4898584;29;19911;-76
2021/09/20 12:56:49;;;;;;;;;;;18.40;98.80;;;;;;4898597;29;20013;-76
2021/09/20 12:59:14;;;;;;;;;;;18.40;98.20;;;;;;4898506;29;20006;-76
2021/09/20 13:01:46;;;;;;;;;;;18.40;98.50;;;;;;4898036;29;19907;-75
2021/09/20 13:04:21;;;;;;;;;;;18.40;98.70;;;;;;4898148;29;19918;-75
2021/09/20 13:06:57;;;;;;;;;;;18.30;98.20;;;;;;4898431;29;19959;-75
2021/09/20 13:09:23;;;;;;;;;;;17.90;98.80;;;;;;4897296;29;19914;-75
2021/09/20 13:11:48;;;;;;;;;;;17.90;99.40;;;;;;4898062;29;19915;-75
2021/09/20 13:14:18;;;;;;;;;;;17.90;99.60;;;;;;4897426;29;20349;-75
2021/09/20 13:16:44;;;;;;;;;;;18.00;99.50;;;;;;4897658;29;19907;-75
2021/09/20 13:19:09;;;;;;;;;;;18.00;98.90;;;;;;4897112;29;19953;-75
2021/09/20 13:21:35;;;;;;;;;;;18.00;99.30;;;;;;4898566;29;19943;-76
2021/09/20 13:24:00;;;;;;;;;;;18.00;99.40;;;;;;4897334;29;20205;-75
2021/09/20 13:26:29;;;;;;;;;;;18.20;98.60;;;;;;4898395;29;20002;-75
2021/09/20 13:28:56;;;;;;;;;;;18.30;99.30;;;;;;4898191;29;19907;-76
2021/09/20 13:31:22;;;;;;;;;;;18.40;98.90;;;;;;4898201;29;20371;-75
2021/09/20 13:33:50;;;;;;;;;;;18.40;98.90;;;;;;4898405;29;19907;-75
2021/09/20 13:36:15;;;;;;;;;;;18.40;99.20;;;;;;4896989;29;19914;-75
2021/09/20 13:38:42;;;;;;;;;;;18.30;99.00;;;;;;4896759;29;19911;-76
2021/09/20 13:41:11;;;;;;;;;;;18.30;99.00;;;;;;4896929;29;19914;-76
2021/09/20 13:43:37;;;;;;;;;;;18.40;98.60;;;;;;4897738;29;19939;-76
2021/09/20 13:46:04;;;;;;;;;;;18.40;98.50;;;;;;4897202;29;20001;-76
2021/09/20 13:48:29;;;;;;;;;;;18.50;98.70;;;;;;4897159;29;20356;-76
2021/09/20 13:50:55;;;;;;;;;;;18.50;98.50;;;;;;4898058;29;19998;-76
2021/09/20 13:53:21;;;;;;;;;;;18.40;99.10;;;;;;4898205;29;19915;-75
2021/09/20 13:55:47;;;;;;;;;;;18.40;98.80;;;;;;4897232;29;20325;-75
2021/09/20 13:58:13;;;;;;;;;;;18.40;99.00;;;;;;4898417;29;19934;-75
2021/09/20 14:00:39;;;;;;;;;;;18.20;99.10;;;;;;4898574;29;19907;-75
2021/09/20 14:03:06;;;;;;;;;;;18.10;99.30;;;;;;4898186;29;20019;-75
2021/09/20 14:05:32;;;;;;;;;;;18.20;99.50;;;;;;4898535;29;19915;-75
2021/09/20 14:07:58;;;;;;;;;;;18.10;99.20;;;;;;4912544;29;20345;-75
2021/09/20 14:10:23;;;;;;;;;;;18.00;99.40;;;;;;4898359;29;20353;-75
2021/09/20 14:12:49;;;;;;;;;;;18.00;99.70;;;;;;4898776;29;19911;-74